createdAt,value
2023-03-06T00:02:20.234Z,99.5
2023-03-06T00:07:26.397Z,99.5
2023-03-06T00:12:32.560Z,99.5
2023-03-06T00:17:38.756Z,99.5
2023-03-06T00:27:51.156Z,99.5
2023-03-06T00:32:57.342Z,99.5
2023-03-06T00:38:02.586Z,99.5
2023-03-06T00:43:08.805Z,99.5
2023-03-06T00:48:15.024Z,99.5
2023-03-06T00:53:21.162Z,99.5
2023-03-06T00:58:27.344Z,99.5
2023-03-06T01:03:33.555Z,99.5
2023-03-06T01:08:39.750Z,99.5
2023-03-06T01:13:45.965Z,99.5
2023-03-06T01:18:52.132Z,99.5
2023-03-06T01:23:58.341Z,99.5
2023-03-06T01:29:04.502Z,99.5
2023-03-06T01:34:10.695Z,99.5
2023-03-06T01:39:16.900Z,99.5
2023-03-06T01:44:23.075Z,99.5
2023-03-06T01:49:28.333Z,99.5
2023-03-06T01:54:34.516Z,99.5
2023-03-06T01:59:40.713Z,99.5
2023-03-06T02:04:46.915Z,99.5
2023-03-06T02:09:53.092Z,99.5
2023-03-06T02:14:59.286Z,99
2023-03-06T02:20:05.504Z,99.5
2023-03-06T03:26:26.034Z,99
2023-03-06T03:31:31.312Z,98.5
2023-03-06T03:36:37.531Z,98
2023-03-06T03:41:42.743Z,98.5
2023-03-06T03:46:48.959Z,98
2023-03-06T03:51:55.134Z,97.5
2023-03-06T03:57:01.319Z,97
2023-03-06T04:02:07.555Z,97
2023-03-06T04:07:13.713Z,97
2023-03-06T04:12:20.019Z,95.5
2023-03-06T04:17:26.075Z,96
2023-03-06T04:22:32.293Z,95.5
2023-03-06T04:27:38.534Z,95.5
2023-03-06T04:32:44.689Z,96
2023-03-06T04:37:50.861Z,96.5
2023-03-06T04:42:56.153Z,96
2023-03-06T04:48:01.416Z,96.5
2023-03-06T04:53:07.568Z,97.5
2023-03-06T04:58:13.789Z,96.5
2023-03-06T05:03:19.965Z,95.5
2023-03-06T05:08:26.137Z,96.5
2023-03-06T05:13:32.359Z,97
2023-03-06T05:18:38.529Z,97
2023-03-06T05:23:44.748Z,97.5
2023-03-06T05:28:50.921Z,98
2023-03-06T05:33:57.141Z,98.5
2023-03-06T05:39:03.352Z,98.5
2023-03-06T05:44:08.589Z,99
2023-03-06T05:49:13.825Z,99.5
2023-03-06T05:54:20.045Z,99.5
2023-03-06T05:59:26.190Z,99.5
2023-03-06T06:04:32.382Z,99.5
2023-03-06T06:09:38.581Z,99.5
2023-03-06T06:14:44.802Z,99.5
2023-03-06T06:19:50.980Z,99.5
2023-03-06T06:24:57.174Z,99.5
2023-03-06T06:30:03.366Z,99.5
2023-03-06T06:35:09.579Z,99.5
2023-03-06T06:40:15.890Z,99.5
2023-03-06T06:45:22.157Z,99.5
2023-03-06T06:50:28.293Z,99.5
2023-03-06T06:55:33.495Z,99.5
2023-03-06T07:00:39.789Z,99.5
2023-03-06T07:05:45.949Z,99.5
2023-03-06T07:10:52.072Z,99.5
2023-03-06T07:15:58.156Z,99.5
2023-03-06T07:21:04.366Z,99.5
2023-03-06T07:26:10.661Z,99.5
2023-03-06T07:31:16.919Z,99.5
2023-03-06T07:36:23.165Z,98.5
2023-03-06T07:41:29.117Z,98
2023-03-06T07:46:35.500Z,97.5
2023-03-06T07:51:41.545Z,96.5
2023-03-06T07:56:47.710Z,98
2023-03-06T08:01:54.023Z,97.5
2023-03-06T08:06:59.299Z,96.5
2023-03-06T08:12:05.482Z,96
2023-03-06T08:17:11.797Z,97.5
2023-03-06T08:22:17.887Z,96
2023-03-06T08:27:24.067Z,95.5
2023-03-06T08:32:30.135Z,95.5
2023-03-06T08:37:36.375Z,97
2023-03-06T08:42:42.601Z,97.5
2023-03-06T08:47:48.791Z,97.5
2023-03-06T08:52:54.973Z,98
2023-03-06T08:58:01.229Z,98.5
2023-03-06T09:03:07.282Z,98.5
2023-03-06T09:08:13.463Z,98.5
2023-03-06T09:13:19.751Z,97.5
2023-03-06T09:18:24.863Z,97.5
2023-03-06T09:23:31.146Z,98.5
2023-03-06T09:28:37.473Z,97.5
2023-03-06T09:33:43.561Z,99
2023-03-06T09:38:49.812Z,99
2023-03-06T09:43:55.935Z,99
2023-03-06T09:49:02.239Z,99
2023-03-06T09:54:08.364Z,98.5
2023-03-06T09:59:14.476Z,98.5
2023-03-06T10:04:20.865Z,98.5
2023-03-06T10:09:27.027Z,97.5
2023-03-06T10:14:33.186Z,98.5
2023-03-06T10:19:39.416Z,97
2023-03-06T10:24:44.567Z,97.5
2023-03-06T10:29:50.781Z,97.5
2023-03-06T10:34:57.002Z,97.5
2023-03-06T10:40:03.098Z,96
2023-03-06T10:45:09.265Z,96
2023-03-06T10:50:15.566Z,96.5
2023-03-06T10:55:21.683Z,97.5
2023-03-06T11:00:27.909Z,99
2023-03-06T11:05:34.009Z,98.5
2023-03-06T11:10:40.308Z,97
2023-03-06T11:15:46.554Z,97.5
2023-03-06T11:20:52.696Z,96
2023-03-06T11:25:58.799Z,97
2023-03-06T11:31:04.020Z,98.5
2023-03-06T11:36:10.286Z,97.5
2023-03-06T11:41:16.438Z,97
2023-03-06T11:46:22.603Z,98.5
2023-03-06T11:51:28.905Z,98.5
2023-03-06T11:56:35.047Z,98.5
2023-03-06T12:01:41.212Z,96.5
2023-03-06T12:06:47.398Z,97
2023-03-06T12:11:53.556Z,98
2023-03-06T12:16:59.836Z,98
2023-03-06T12:22:05.955Z,98.5
2023-03-06T12:27:12.161Z,98
2023-03-06T12:32:18.420Z,97.5
2023-03-06T12:37:30.711Z,97.5
2023-03-06T12:42:30.737Z,98
2023-03-06T12:47:36.910Z,98.5
2023-03-06T12:52:42.374Z,95.5
2023-03-06T12:57:48.439Z,97.5
2023-03-06T13:02:54.678Z,95.5
2023-03-06T13:08:00.920Z,95.5
2023-03-06T13:13:07.094Z,95.5
2023-03-06T13:18:13.186Z,98
2023-03-06T13:23:19.335Z,96.5
2023-03-06T13:28:25.599Z,96
2023-03-06T13:33:31.719Z,96.5
2023-03-06T13:38:37.892Z,98
2023-03-06T13:43:44.274Z,97
2023-03-06T13:48:50.468Z,97.5
2023-03-06T13:53:56.762Z,98
2023-03-06T14:04:08.035Z,98
2023-03-06T14:09:14.280Z,98
2023-03-06T14:14:20.513Z,96.5
2023-03-06T14:19:26.547Z,96.5
2023-03-06T14:24:32.803Z,93.5
2023-03-06T14:29:38.930Z,95
2023-03-06T14:34:45.286Z,94
2023-03-06T14:39:51.527Z,94
2023-03-06T14:44:57.686Z,91.5
2023-03-06T14:50:03.790Z,91
2023-03-06T14:55:10.067Z,91.5
2023-03-06T15:00:16.193Z,89
2023-03-06T15:05:21.346Z,86
2023-03-06T15:10:27.528Z,87
2023-03-06T15:15:33.713Z,88.5
2023-03-06T15:20:39.897Z,89.5
2023-03-06T15:25:46.092Z,89.5
2023-03-06T15:30:52.390Z,91
2023-03-06T15:35:58.491Z,87
2023-03-06T15:41:04.866Z,85.5
2023-03-06T15:46:11.040Z,87
2023-03-06T15:51:17.082Z,90
2023-03-06T15:56:23.257Z,93.5
2023-03-06T16:01:29.433Z,94
2023-03-06T16:06:35.624Z,93.5
2023-03-06T16:11:41.009Z,94
2023-03-06T16:16:47.110Z,94
2023-03-06T16:21:53.275Z,95
2023-03-06T16:26:59.442Z,96
2023-03-06T16:32:05.681Z,97.5
2023-03-06T16:42:18.169Z,98
2023-03-06T16:47:24.385Z,99.5
2023-03-06T16:52:30.476Z,99.5
2023-03-06T16:57:36.600Z,99.5
2023-03-06T17:02:42.799Z,99.5
2023-03-06T17:07:49.021Z,99.5
2023-03-06T17:12:55.203Z,99.5
2023-03-06T17:18:00.439Z,99.5
2023-03-06T17:23:06.654Z,99.5
2023-03-06T17:28:12.837Z,99.5
2023-03-06T17:33:19.019Z,99.5
2023-03-06T17:38:25.209Z,99.5
2023-03-06T17:43:31.391Z,99.5
2023-03-06T17:48:37.683Z,99.5
2023-03-06T17:53:43.820Z,99.5
2023-03-06T17:58:50.051Z,99.5
2023-03-06T18:03:56.217Z,99.5
2023-03-06T18:09:02.412Z,99.5
2023-03-06T18:14:08.600Z,99.5
2023-03-06T18:19:14.796Z,99.5
2023-03-06T18:24:20.032Z,99.5
2023-03-06T18:29:26.231Z,99.5
2023-03-06T18:34:32.415Z,99.5
2023-03-06T18:39:38.636Z,99.5
2023-03-06T18:44:44.888Z,99.5
2023-03-06T18:49:51.084Z,99.5
2023-03-06T18:54:57.224Z,99.5
2023-03-06T19:00:03.396Z,99.5
2023-03-06T19:05:09.648Z,99.5
2023-03-06T19:10:15.832Z,99.5
2023-03-06T19:15:21.982Z,99.5
2023-03-06T19:20:28.173Z,99.5
2023-03-06T20:01:17.748Z,99.5
2023-03-06T20:06:23.032Z,99.5
2023-03-06T20:11:28.268Z,99.5
2023-03-06T20:21:40.668Z,99.5
2023-03-06T20:26:46.852Z,99.5
2023-03-06T20:31:53.031Z,99.5
2023-03-06T20:36:59.215Z,99.5
2023-03-06T20:42:05.432Z,99.5
2023-03-06T20:47:10.708Z,99.5
2023-03-06T20:52:16.892Z,99.5
2023-03-06T20:57:23.088Z,99.5
2023-03-06T21:02:29.350Z,99.5
2023-03-06T21:07:35.472Z,99.5
2023-03-06T21:12:41.659Z,99.5
2023-03-06T21:17:47.949Z,99.5
2023-03-06T21:22:54.060Z,99.5
2023-03-06T21:28:00.290Z,99.5
2023-03-06T21:33:06.456Z,99.5
2023-03-06T21:38:12.648Z,99.5
2023-03-06T21:43:18.857Z,99.5
2023-03-06T21:48:25.054Z,99.5
2023-03-06T21:53:30.295Z,99.5
2023-03-06T21:58:35.554Z,99.5
2023-03-06T22:03:40.798Z,99.5
2023-03-06T22:08:46.996Z,99.5
2023-03-06T22:13:53.202Z,99.5
2023-03-06T22:18:59.387Z,99.5
2023-03-06T22:24:05.573Z,99.5
2023-03-06T22:29:11.781Z,99.5
2023-03-06T22:34:17.975Z,99.5
2023-03-06T22:39:24.160Z,99.5
2023-03-06T22:44:30.386Z,99.5
2023-03-06T22:49:36.571Z,99.5
2023-03-06T22:54:42.759Z,99.5
2023-03-06T22:59:48.940Z,99.5
2023-03-06T23:04:55.142Z,99.5
2023-03-06T23:10:00.386Z,99.5
2023-03-06T23:15:06.577Z,99.5
2023-03-06T23:20:12.782Z,99.5
2023-03-06T23:25:18.952Z,99.5
2023-03-06T23:30:25.174Z,99.5
2023-03-06T23:35:31.355Z,99.5
2023-03-06T23:40:37.550Z,99.5
2023-03-06T23:45:43.804Z,99.5
2023-03-06T23:50:49.957Z,99.5
2023-03-06T23:55:56.196Z,99.5
